Aviation Digital Data Service (ADDS)

Output produced by TAFs form (2042 UTC 16 December 2017)
found at http://www.aviationweather.gov/adds/tafs/
 
KERI 162035Z AUTO 07004KT 3SM BR OVC007 M01/M02 A3003 RMK AO2 UPB31E34SNE31 P0001 T10111022 $
KERI 161947Z 1620/1718 36004KT 2SM -SN BR OVC015 
     TEMPO 1620/1621 1SM -SN BR OVC008 
     FM162100 03004KT 4SM -SN BR OVC015 
     FM162200 03004KT 6SM -SN BR OVC020 
     FM170100 03004KT P6SM OVC025 
     FM170600 10006KT P6SM OVC015
       
KFKL 161956Z AUTO 25008KT 5SM -SN OVC016 00/M03 A2998 RMK AO2 SLP172 P0000 T00001028 FZRANO
KFKL 162005Z 1620/1718 25010KT 5SM -SN BKN025 
     FM170000 24003KT P6SM BKN025 
     FM171000 00000KT P6SM BKN008 
     FM171600 16004KT P6SM BKN010
       
KYNG 161951Z 24008KT 10SM FEW034 FEW075 BKN095 BKN130 03/M03 A2999 RMK AO2 SNE11 SLP166 P0000 T00281033
KYNG 161740Z 1618/1718 24010KT P6SM SCT030 OVC050 
     TEMPO 1618/1620 4SM -SN BR OVC030 
     FM162000 26006KT P6SM SCT035 BKN080 
     FM162200 VRB04KT P6SM SCT080 
     FM170700 13004KT 5SM BR SCT009 BKN200 
     FM171000 13004KT 4SM BR OVC009 
     FM171600 15006KT P6SM BKN012
       
KBVI 161947Z 23007KT 10SM BKN095 05/M03 A2999
KBVI 162005Z 1620/1718 24010KT P6SM BKN100 
     FM162300 24004KT P6SM SCT090 
     FM171400 18003KT P6SM BKN100
       
KAGC 161953Z 23012G19KT 10SM CLR 04/M04 A3000 RMK AO2 SLP175 T00391044
KAGC 161728Z 1618/1718 24011KT P6SM BKN100 
     FM162100 24007KT P6SM SCT150 
     FM171600 19005KT P6SM BKN080
       
KPIT 161951Z 22010KT 10SM FEW090 SCT200 06/M03 A3000 RMK AO2 SLP175 T00561033 $
KPIT 161728Z 1618/1724 24010KT P6SM BKN100 
     FM162200 24005KT P6SM SCT150 
     FM171500 19003KT P6SM BKN080 
     FM172000 19005KT P6SM VCSH OVC040
       
KBTP 161956Z AUTO 23011KT 10SM BKN095 03/M04 A3000 RMK AO2 RAE03 SLP176 P0000 T00331039